Time;durP1;ratioP1;P1;durP2;ratioP2;P2;SDS_P1;SDS_P2;PMS_P1;PMS_P2;Temp;Humidity;BMP_temperature;BMP_pressure;BME280_temperature;BME280_humidity;BME280_pressure;Samples;Min_cycle;Max_cycle;Signal;HPM_P1;HPM_P2
2021/11/18 00:01:37;;;;;;;14.98;2.42;;;;;;;;;;4983311;28;20037;-60
2021/11/18 00:04:03;;;;;;;23.55;2.55;;;;;;;;;;4985358;28;20056;-60
2021/11/18 00:06:30;;;;;;;16.67;2.40;;;;;;;;;;4982217;28;20029;-60
2021/11/18 00:08:59;;;;;;;12.38;2.42;;;;;;;;;;4986402;28;20101;-59
2021/11/18 00:11:27;;;;;;;17.10;2.65;;;;;;;;;;4984432;28;20781;-62
2021/11/18 00:13:53;;;;;;;14.85;2.13;;;;;;;;;;4986121;28;20669;-60
2021/11/18 00:16:22;;;;;;;6.68;1.63;;;;;;;;;;5000641;28;20042;-59
2021/11/18 00:18:50;;;;;;;18.27;2.63;;;;;;;;;;4984963;28;20026;-60
2021/11/18 00:21:18;;;;;;;23.52;2.95;;;;;;;;;;4985067;28;20580;-58
2021/11/18 00:23:48;;;;;;;19.90;2.75;;;;;;;;;;4983488;28;20150;-62
2021/11/18 00:26:19;;;;;;;12.18;1.95;;;;;;;;;;4986583;28;20026;-59
2021/11/18 00:28:49;;;;;;;15.32;2.17;;;;;;;;;;4985005;28;20401;-60
2021/11/18 00:31:22;;;;;;;24.42;2.67;;;;;;;;;;4981285;28;20026;-60
2021/11/18 00:33:50;;;;;;;17.80;2.72;;;;;;;;;;4967211;28;20124;-59
2021/11/18 00:36:21;;;;;;;15.60;2.38;;;;;;;;;;4983582;28;20984;-59
2021/11/18 00:38:46;;;;;;;9.75;1.77;;;;;;;;;;4966563;28;20050;-60
2021/11/18 00:41:15;;;;;;;10.55;2.10;;;;;;;;;;4985552;28;20065;-60
2021/11/18 00:43:43;;;;;;;18.23;2.88;;;;;;;;;;4984893;28;20030;-60
2021/11/18 00:46:09;;;;;;;14.93;2.67;;;;;;;;;;5000569;28;20730;-60
2021/11/18 00:48:35;;;;;;;15.48;2.45;;;;;;;;;;4984738;28;20025;-59
2021/11/18 00:51:05;;;;;;;14.85;2.35;;;;;;;;;;4984892;28;20037;-59
2021/11/18 00:53:31;;;;;;;23.30;2.78;;;;;;;;;;5002582;28;20553;-59
2021/11/18 00:55:59;;;;;;;16.50;2.20;;;;;;;;;;4983855;28;20034;-59
2021/11/18 00:58:25;;;;;;;14.32;2.92;;;;;;;;;;4967909;28;20048;-59
2021/11/18 01:00:53;;;;;;;13.63;2.35;;;;;;;;;;4984113;28;20042;-59
2021/11/18 01:03:20;;;;;;;21.50;2.67;;;;;;;;;;4985316;28;20464;-59
2021/11/18 01:05:49;;;;;;;16.85;3.80;;;;;;;;;;4982615;28;20754;-60
2021/11/18 01:08:17;;;;;;;15.60;2.50;;;;;;;;;;4966883;28;20164;-59
2021/11/18 01:10:48;;;;;;;16.48;2.55;;;;;;;;;;4983074;28;20061;-60
2021/11/18 01:13:16;;;;;;;19.17;2.47;;;;;;;;;;4963675;28;20030;-60
2021/11/18 01:15:45;;;;;;;16.05;2.65;;;;;;;;;;4984624;28;20040;-61
2021/11/18 01:18:13;;;;;;;24.92;2.75;;;;;;;;;;4983461;28;20244;-62
2021/11/18 01:20:42;;;;;;;15.73;2.67;;;;;;;;;;4983339;28;20030;-60
2021/11/18 01:23:09;;;;;;;12.20;1.77;;;;;;;;;;4984762;28;20469;-61
2021/11/18 01:25:35;;;;;;;17.02;2.80;;;;;;;;;;4966476;28;20569;-62
2021/11/18 01:28:04;;;;;;;20.83;3.28;;;;;;;;;;4983362;28;20038;-60
2021/11/18 01:30:35;;;;;;;20.80;2.58;;;;;;;;;;4981986;28;20030;-60
2021/11/18 01:33:03;;;;;;;17.67;3.67;;;;;;;;;;4984870;28;20060;-61
2021/11/18 01:39:07;;;;;;;12.43;2.13;;;;;;;;;;4982992;28;20036;-62
2021/11/18 01:41:34;;;;;;;23.17;2.47;;;;;;;;;;4982771;28;20041;-62
2021/11/18 01:44:01;;;;;;;21.42;3.00;;;;;;;;;;4968028;28;20128;-61
2021/11/18 01:46:29;;;;;;;18.80;2.92;;;;;;;;;;4981878;28;20681;-62
2021/11/18 01:49:02;;;;;;;24.58;3.35;;;;;;;;;;4983806;28;20030;-61
2021/11/18 01:51:29;;;;;;;25.40;3.28;;;;;;;;;;4980647;28;20042;-61
2021/11/18 01:53:57;;;;;;;22.77;2.60;;;;;;;;;;4965541;28;20036;-60
2021/11/18 01:56:27;;;;;;;20.70;3.95;;;;;;;;;;4976339;28;20125;-61
2021/11/18 01:58:54;;;;;;;25.60;3.45;;;;;;;;;;4983060;28;20580;-61
2021/11/18 02:01:22;;;;;;;29.20;3.88;;;;;;;;;;4982838;28;20048;-62
2021/11/18 02:03:52;;;;;;;24.13;3.15;;;;;;;;;;5000178;28;20061;-60
2021/11/18 02:06:32;;;;;;;12.82;2.47;;;;;;;;;;4984646;28;20042;-60
2021/11/18 02:09:00;;;;;;;28.38;3.63;;;;;;;;;;4983825;28;21859;-60
2021/11/18 02:11:29;;;;;;;29.85;3.95;;;;;;;;;;4984300;28;20105;-59
2021/11/18 02:13:55;;;;;;;24.25;3.80;;;;;;;;;;4967252;28;20163;-60
2021/11/18 02:16:21;;;;;;;28.92;2.78;;;;;;;;;;4987197;28;20022;-60
2021/11/18 02:18:52;;;;;;;29.40;4.20;;;;;;;;;;4985652;28;20062;-60
2021/11/18 02:21:23;;;;;;;20.27;3.03;;;;;;;;;;4966633;28;20038;-59
2021/11/18 02:23:52;;;;;;;34.00;3.30;;;;;;;;;;4983918;28;20061;-60
2021/11/18 02:26:19;;;;;;;18.17;3.03;;;;;;;;;;4985208;28;20763;-59
2021/11/18 02:28:45;;;;;;;12.73;3.08;;;;;;;;;;4991238;28;20042;-62
2021/11/18 02:31:37;;;;;;;20.42;2.75;;;;;;;;;;4981578;28;20022;-59
2021/11/18 02:34:07;;;;;;;28.50;3.63;;;;;;;;;;5000261;28;20043;-60
2021/11/18 02:36:34;;;;;;;21.92;4.20;;;;;;;;;;4983369;28;20070;-60
2021/11/18 02:39:05;;;;;;;18.25;3.42;;;;;;;;;;4984061;28;20038;-60
2021/11/18 02:41:31;;;;;;;22.95;3.70;;;;;;;;;;4984709;28;20060;-61
2021/11/18 02:43:56;;;;;;;25.88;2.95;;;;;;;;;;4982907;28;20498;-61
2021/11/18 02:46:21;;;;;;;31.15;4.85;;;;;;;;;;4981609;28;20022;-60
2021/11/18 02:48:49;;;;;;;23.45;3.28;;;;;;;;;;4981779;28;20022;-61
2021/11/18 02:51:18;;;;;;;16.88;3.38;;;;;;;;;;4981509;28;20456;-60
2021/11/18 02:53:44;;;;;;;22.30;3.95;;;;;;;;;;4984138;28;20036;-60
2021/11/18 02:56:10;;;;;;;33.72;3.53;;;;;;;;;;4981829;28;20050;-60
2021/11/18 02:58:35;;;;;;;16.67;3.30;;;;;;;;;;5001767;28;20190;-61
2021/11/18 03:01:09;;;;;;;31.88;4.97;;;;;;;;;;4985528;28;20591;-60
2021/11/18 03:03:37;;;;;;;32.60;3.70;;;;;;;;;;4985415;28;20045;-59
2021/11/18 03:06:07;;;;;;;25.60;3.33;;;;;;;;;;4987860;28;20034;-60
2021/11/18 03:08:35;;;;;;;22.38;3.85;;;;;;;;;;4987525;28;20038;-60
2021/11/18 03:11:01;;;;;;;26.85;4.07;;;;;;;;;;4986784;28;20413;-59
2021/11/18 03:13:30;;;;;;;28.83;4.13;;;;;;;;;;5002043;28;20084;-60
2021/11/18 03:15:58;;;;;;;29.88;4.25;;;;;;;;;;4986324;28;20239;-60
2021/11/18 03:18:31;;;;;;;28.27;3.90;;;;;;;;;;4985823;28;20053;-59
2021/11/18 03:20:57;;;;;;;21.30;3.53;;;;;;;;;;4984214;28;20044;-60
2021/11/18 03:23:25;;;;;;;18.85;3.47;;;;;;;;;;4986542;28;20060;-60
2021/11/18 03:25:53;;;;;;;20.95;3.50;;;;;;;;;;4986658;28;20030;-60
2021/11/18 03:28:25;;;;;;;29.20;5.32;;;;;;;;;;4984637;28;20053;-60
2021/11/18 03:30:51;;;;;;;30.88;4.28;;;;;;;;;;5001824;28;20052;-59
2021/11/18 03:33:21;;;;;;;19.38;3.38;;;;;;;;;;4985787;28;20050;-61
2021/11/18 03:35:48;;;;;;;22.00;4.18;;;;;;;;;;4986885;28;20049;-61
2021/11/18 03:38:18;;;;;;;21.38;3.78;;;;;;;;;;4970636;28;20030;-60
2021/11/18 03:40:50;;;;;;;23.77;4.40;;;;;;;;;;5004313;28;20041;-58
2021/11/18 03:43:16;;;;;;;25.92;4.43;;;;;;;;;;4985958;28;20099;-60
2021/11/18 03:45:42;;;;;;;21.35;3.88;;;;;;;;;;4986522;28;20033;-60
2021/11/18 03:48:15;;;;;;;22.40;3.70;;;;;;;;;;4986553;28;21036;-61
2021/11/18 03:50:46;;;;;;;21.00;4.20;;;;;;;;;;4987358;28;20116;-61
2021/11/18 03:53:11;;;;;;;21.13;3.45;;;;;;;;;;4987189;28;20483;-61
2021/11/18 03:55:36;;;;;;;17.52;3.40;;;;;;;;;;4986940;28;20044;-62
2021/11/18 03:58:02;;;;;;;19.25;3.42;;;;;;;;;;4986925;28;20029;-62
2021/11/18 04:00:29;;;;;;;33.33;5.00;;;;;;;;;;4988566;28;20057;-61
2021/11/18 04:02:55;;;;;;;33.28;4.50;;;;;;;;;;4985077;28;20038;-61
2021/11/18 04:05:21;;;;;;;25.13;4.00;;;;;;;;;;4968611;28;20030;-61
2021/11/18 04:07:46;;;;;;;33.78;4.63;;;;;;;;;;4982216;28;20068;-61
2021/11/18 04:10:15;;;;;;;25.27;4.30;;;;;;;;;;4984272;28;20084;-62
2021/11/18 04:12:41;;;;;;;27.30;3.80;;;;;;;;;;4985805;28;20018;-60
2021/11/18 04:15:10;;;;;;;27.95;3.72;;;;;;;;;;4986253;28;20064;-60
2021/11/18 04:17:36;;;;;;;27.02;4.30;;;;;;;;;;4983207;28;20104;-60
2021/11/18 04:20:07;;;;;;;17.52;3.25;;;;;;;;;;4988185;28;20034;-59
2021/11/18 04:22:36;;;;;;;26.02;4.78;;;;;;;;;;4983527;28;20409;-61
2021/11/18 04:25:05;;;;;;;22.25;3.10;;;;;;;;;;4989004;28;20589;-62
2021/11/18 04:27:34;;;;;;;17.23;3.75;;;;;;;;;;4986272;28;20069;-59
2021/11/18 04:30:05;;;;;;;23.45;3.60;;;;;;;;;;4986851;28;20075;-60
2021/11/18 04:32:32;;;;;;;20.75;4.03;;;;;;;;;;4982290;28;20053;-59
2021/11/18 04:35:02;;;;;;;32.47;3.72;;;;;;;;;;4967760;28;20026;-60
2021/11/18 04:37:31;;;;;;;41.53;3.95;;;;;;;;;;4982484;28;20037;-59
2021/11/18 04:39:56;;;;;;;24.08;3.83;;;;;;;;;;4985269;28;20029;-60
2021/11/18 04:42:29;;;;;;;21.15;3.95;;;;;;;;;;4983577;28;20076;-60
2021/11/18 04:44:57;;;;;;;36.55;4.22;;;;;;;;;;4981775;28;20088;-61
2021/11/18 04:47:47;;;;;;;29.77;3.72;;;;;;;;;;4980946;28;20076;-61
2021/11/18 04:50:13;;;;;;;32.53;4.93;;;;;;;;;;4983297;28;20034;-61
2021/11/18 04:52:41;;;;;;;21.63;3.88;;;;;;;;;;4985078;28;20125;-61
2021/11/18 04:55:11;;;;;;;30.13;3.92;;;;;;;;;;4983870;28;20033;-60
2021/11/18 04:57:39;;;;;;;22.48;3.45;;;;;;;;;;4984798;28;20096;-61
2021/11/18 05:03:42;;;;;;;25.55;3.38;;;;;;;;;;4983759;28;20212;-60
2021/11/18 05:06:16;;;;;;;21.95;3.65;;;;;;;;;;4983983;28;20166;-60
2021/11/18 05:08:45;;;;;;;20.67;3.38;;;;;;;;;;4980850;28;20130;-62
2021/11/18 05:11:12;;;;;;;32.70;5.22;;;;;;;;;;4983342;28;20029;-60
2021/11/18 05:13:41;;;;;;;27.75;4.32;;;;;;;;;;4999641;28;20580;-61
2021/11/18 05:16:07;;;;;;;19.30;4.15;;;;;;;;;;4985724;28;20025;-60
2021/11/18 05:18:36;;;;;;;29.60;3.55;;;;;;;;;;5000469;28;20053;-61
2021/11/18 05:21:05;;;;;;;25.42;4.10;;;;;;;;;;4983963;28;20042;-60
2021/11/18 05:23:34;;;;;;;20.95;4.38;;;;;;;;;;4985417;28;20692;-61
2021/11/18 05:26:02;;;;;;;31.10;3.67;;;;;;;;;;4983522;28;20022;-59
2021/11/18 05:28:28;;;;;;;24.83;4.47;;;;;;;;;;4984715;28;20061;-61
2021/11/18 05:30:54;;;;;;;33.88;3.92;;;;;;;;;;4985485;28;20125;-61
2021/11/18 05:33:26;;;;;;;44.28;4.50;;;;;;;;;;4985042;28;20058;-60
2021/11/18 05:35:53;;;;;;;26.98;4.50;;;;;;;;;;4984791;28;20029;-62
2021/11/18 05:38:19;;;;;;;23.05;3.13;;;;;;;;;;4985019;28;20034;-60
2021/11/18 05:40:45;;;;;;;18.67;3.70;;;;;;;;;;4968330;28;20037;-60
2021/11/18 05:43:13;;;;;;;22.98;4.05;;;;;;;;;;4982067;28;20022;-60
2021/11/18 05:45:41;;;;;;;37.40;6.78;;;;;;;;;;4987060;28;20025;-60
2021/11/18 05:48:08;;;;;;;21.05;4.97;;;;;;;;;;4984690;28;21917;-61
2021/11/18 05:50:34;;;;;;;22.08;5.10;;;;;;;;;;4982576;28;20117;-62
2021/11/18 05:53:00;;;;;;;21.15;4.05;;;;;;;;;;4982683;28;20156;-61
2021/11/18 05:55:29;;;;;;;24.27;3.88;;;;;;;;;;4999264;28;20110;-60
2021/11/18 05:57:58;;;;;;;34.15;4.40;;;;;;;;;;4979824;28;20038;-60
2021/11/18 06:00:30;;;;;;;22.95;4.53;;;;;;;;;;4979971;28;20057;-61
2021/11/18 06:02:56;;;;;;;23.40;4.03;;;;;;;;;;4982894;28;20041;-62
2021/11/18 06:05:25;;;;;;;25.30;4.05;;;;;;;;;;4985109;28;20026;-60
2021/11/18 06:07:52;;;;;;;24.63;3.47;;;;;;;;;;4981695;28;20068;-60
2021/11/18 06:10:21;;;;;;;35.63;4.97;;;;;;;;;;4984545;28;20034;-62
2021/11/18 06:12:49;;;;;;;20.58;4.38;;;;;;;;;;4986478;28;20029;-61
2021/11/18 06:15:18;;;;;;;23.73;4.45;;;;;;;;;;4984610;28;20033;-62
2021/11/18 06:17:46;;;;;;;23.20;5.65;;;;;;;;;;4981622;28;20081;-59
2021/11/18 06:20:12;;;;;;;22.75;4.50;;;;;;;;;;4960903;28;20066;-59
2021/11/18 06:22:39;;;;;;;34.53;4.22;;;;;;;;;;4973612;28;20030;-60
2021/11/18 06:25:05;;;;;;;18.67;4.13;;;;;;;;;;4984527;28;20601;-60
2021/11/18 06:27:30;;;;;;;24.75;5.15;;;;;;;;;;5001198;28;20040;-61
2021/11/18 06:29:56;;;;;;;31.65;4.57;;;;;;;;;;4982757;28;20034;-60
2021/11/18 06:32:22;;;;;;;21.50;3.47;;;;;;;;;;4984350;28;20459;-60
2021/11/18 06:34:50;;;;;;;33.47;3.92;;;;;;;;;;4988190;28;20041;-59
2021/11/18 06:37:16;;;;;;;19.83;4.20;;;;;;;;;;4987041;28;20252;-60
2021/11/18 06:39:44;;;;;;;33.45;4.78;;;;;;;;;;5004925;28;20034;-60
2021/11/18 06:42:10;;;;;;;28.08;4.72;;;;;;;;;;4989425;28;20097;-60
2021/11/18 06:44:36;;;;;;;21.88;4.03;;;;;;;;;;4983095;28;20130;-60
2021/11/18 06:47:04;;;;;;;24.83;4.53;;;;;;;;;;4987796;28;20033;-60
2021/11/18 06:49:30;;;;;;;29.27;4.50;;;;;;;;;;5003990;28;20033;-60
2021/11/18 06:51:55;;;;;;;27.25;3.85;;;;;;;;;;4990750;28;20029;-60
2021/11/18 06:54:26;;;;;;;45.17;4.00;;;;;;;;;;4985880;28;22451;-59
2021/11/18 06:56:51;;;;;;;30.23;5.53;;;;;;;;;;4988052;28;20088;-59
2021/11/18 06:59:17;;;;;;;29.30;4.38;;;;;;;;;;4988565;28;21018;-61
2021/11/18 07:01:43;;;;;;;16.70;3.65;;;;;;;;;;4951975;28;20488;-60
2021/11/18 07:04:11;;;;;;;18.23;3.90;;;;;;;;;;4988975;28;20396;-60
2021/11/18 07:06:41;;;;;;;18.60;2.88;;;;;;;;;;4960833;28;20034;-60
2021/11/18 07:09:10;;;;;;;29.05;3.45;;;;;;;;;;5005787;28;20034;-60
2021/11/18 07:11:36;;;;;;;21.70;3.15;;;;;;;;;;5002995;28;20018;-60
2021/11/18 07:14:02;;;;;;;16.20;3.95;;;;;;;;;;5001673;28;20096;-60
2021/11/18 07:16:35;;;;;;;25.17;4.72;;;;;;;;;;4986076;28;20022;-60
2021/11/18 07:19:07;;;;;;;32.40;3.92;;;;;;;;;;4986997;28;20091;-59
2021/11/18 07:21:36;;;;;;;23.02;3.85;;;;;;;;;;4987609;28;20062;-59
2021/11/18 07:24:02;;;;;;;26.55;3.83;;;;;;;;;;5003562;28;20041;-60
2021/11/18 07:26:31;;;;;;;25.33;4.15;;;;;;;;;;4984796;28;20064;-60
2021/11/18 07:29:00;;;;;;;23.33;4.28;;;;;;;;;;4985842;28;20103;-60
2021/11/18 07:31:26;;;;;;;26.60;4.95;;;;;;;;;;4986858;28;20040;-60
2021/11/18 07:33:56;;;;;;;26.33;4.57;;;;;;;;;;4971206;28;20057;-61
2021/11/18 07:36:27;;;;;;;28.70;5.50;;;;;;;;;;4984673;28;21034;-61
2021/11/18 07:38:52;;;;;;;21.17;3.72;;;;;;;;;;4983988;28;21146;-60
2021/11/18 07:41:18;;;;;;;18.83;4.30;;;;;;;;;;4987669;28;20037;-60
2021/11/18 07:43:48;;;;;;;23.02;4.63;;;;;;;;;;4986670;28;20041;-61
2021/11/18 07:46:15;;;;;;;21.65;5.03;;;;;;;;;;4980813;28;20026;-60
2021/11/18 07:48:46;;;;;;;18.17;4.65;;;;;;;;;;4983489;28;20026;-61
2021/11/18 07:51:12;;;;;;;30.88;5.40;;;;;;;;;;4986715;28;20132;-62
2021/11/18 07:53:44;;;;;;;18.33;4.57;;;;;;;;;;4987049;28;20947;-60
2021/11/18 07:56:14;;;;;;;19.13;4.30;;;;;;;;;;4986121;28;20037;-61
2021/11/18 07:58:42;;;;;;;26.52;4.82;;;;;;;;;;4964819;28;20304;-61
2021/11/18 08:01:07;;;;;;;28.42;5.03;;;;;;;;;;4985657;28;20433;-60
2021/11/18 08:03:37;;;;;;;39.90;5.53;;;;;;;;;;4984337;28;20084;-60
2021/11/18 08:06:05;;;;;;;30.95;4.70;;;;;;;;;;5003266;28;20033;-61
2021/11/18 08:08:30;;;;;;;24.75;3.40;;;;;;;;;;4986751;28;20022;-62
2021/11/18 08:10:58;;;;;;;22.05;4.72;;;;;;;;;;4985720;28;20401;-62
2021/11/18 08:13:26;;;;;;;29.88;4.45;;;;;;;;;;4986545;28;20669;-61
2021/11/18 08:15:54;;;;;;;24.77;4.53;;;;;;;;;;4987003;28;20029;-61
2021/11/18 08:18:26;;;;;;;21.08;4.50;;;;;;;;;;4985317;28;21998;-60
2021/11/18 08:20:54;;;;;;;20.48;4.30;;;;;;;;;;4970279;28;20037;-61
2021/11/18 08:23:20;;;;;;;27.58;4.72;;;;;;;;;;4985411;28;20044;-60
2021/11/18 08:25:45;;;;;;;26.55;4.65;;;;;;;;;;4987359;28;20041;-60
2021/11/18 08:28:13;;;;;;;14.65;3.75;;;;;;;;;;4986092;28;20034;-61
2021/11/18 08:30:41;;;;;;;18.90;4.38;;;;;;;;;;4969211;28;20462;-61
2021/11/18 08:33:11;;;;;;;11.35;3.78;;;;;;;;;;5001140;28;20041;-62
2021/11/18 08:35:41;;;;;;;26.25;5.10;;;;;;;;;;4984726;28;20417;-60
2021/11/18 08:38:16;;;;;;;25.38;4.75;;;;;;;;;;4984027;28;20465;-61
2021/11/18 08:40:51;;;;;;;19.73;3.25;;;;;;;;;;4983769;28;20068;-61
2021/11/18 08:43:23;;;;;;;18.95;3.78;;;;;;;;;;4979630;28;20717;-61
2021/11/18 08:45:51;;;;;;;19.60;3.20;;;;;;;;;;5001310;28;20038;-62
2021/11/18 08:48:16;;;;;;;21.52;3.45;;;;;;;;;;4986561;28;20166;-61
2021/11/18 08:50:46;;;;;;;22.70;3.42;;;;;;;;;;5002459;28;21036;-60
2021/11/18 08:53:14;;;;;;;15.50;3.05;;;;;;;;;;4988926;28;20675;-59
2021/11/18 08:55:43;;;;;;;17.73;3.10;;;;;;;;;;4988815;28;20038;-59
2021/11/18 08:58:15;;;;;;;20.17;3.90;;;;;;;;;;4983563;28;20149;-59
2021/11/18 09:00:43;;;;;;;21.15;4.05;;;;;;;;;;5002114;28;20036;-59
2021/11/18 09:03:11;;;;;;;28.13;4.45;;;;;;;;;;4985880;28;20029;-59
2021/11/18 09:05:37;;;;;;;14.27;3.33;;;;;;;;;;5001123;28;20030;-60
2021/11/18 09:08:04;;;;;;;14.48;2.85;;;;;;;;;;4965333;28;20033;-59
2021/11/18 09:10:32;;;;;;;20.60;3.42;;;;;;;;;;4983157;28;21951;-60
2021/11/18 09:13:00;;;;;;;19.95;2.97;;;;;;;;;;5002156;28;20033;-60
2021/11/18 09:15:27;;;;;;;14.80;3.60;;;;;;;;;;4981827;28;20534;-59
2021/11/18 09:17:57;;;;;;;20.10;3.67;;;;;;;;;;4986031;28;20120;-61
2021/11/18 09:20:23;;;;;;;21.48;3.40;;;;;;;;;;4985737;28;20025;-60
2021/11/18 09:22:57;;;;;;;18.17;4.30;;;;;;;;;;4985144;28;20026;-61
2021/11/18 09:25:34;;;;;;;22.80;3.60;;;;;;;;;;4987610;28;20109;-59
2021/11/18 09:28:03;;;;;;;18.20;3.55;;;;;;;;;;5002005;28;20116;-59
2021/11/18 09:30:35;;;;;;;19.48;3.03;;;;;;;;;;4988012;28;20061;-61
2021/11/18 09:33:04;;;;;;;15.32;2.83;;;;;;;;;;4984195;28;20636;-60
2021/11/18 09:35:37;;;;;;;19.90;3.05;;;;;;;;;;4984721;28;20563;-60
2021/11/18 09:38:02;;;;;;;15.63;3.28;;;;;;;;;;4983439;28;20033;-60
2021/11/18 09:40:42;;;;;;;15.52;2.78;;;;;;;;;;4983398;28;20413;-61
2021/11/18 09:43:15;;;;;;;21.23;3.15;;;;;;;;;;4996408;28;20038;-59
2021/11/18 09:46:12;;;;;;;18.95;3.22;;;;;;;;;;4983449;28;20042;-60
2021/11/18 09:48:48;;;;;;;16.15;2.70;;;;;;;;;;4932321;28;20043;-60
2021/11/18 09:51:35;;;;;;;20.48;2.92;;;;;;;;;;4985873;28;20362;-61
2021/11/18 09:54:27;;;;;;;18.40;2.78;;;;;;;;;;4983591;28;20038;-59
2021/11/18 09:57:11;;;;;;;19.77;2.40;;;;;;;;;;4975518;28;20052;-61
2021/11/18 09:59:55;;;;;;;15.00;2.58;;;;;;;;;;4983584;28;20171;-60
2021/11/18 10:02:39;;;;;;;12.63;2.60;;;;;;;;;;5001888;28;20454;-60
2021/11/18 10:05:11;;;;;;;20.23;2.92;;;;;;;;;;4984467;28;20952;-60
2021/11/18 10:07:43;;;;;;;10.00;2.42;;;;;;;;;;4985002;28;20049;-60
2021/11/18 10:10:30;;;;;;;14.10;2.97;;;;;;;;;;4985232;28;20040;-60
2021/11/18 10:13:13;;;;;;;18.50;2.72;;;;;;;;;;4998820;28;20030;-60
2021/11/18 10:15:43;;;;;;;17.17;2.55;;;;;;;;;;4983375;28;20030;-61
2021/11/18 10:18:14;;;;;;;18.77;2.92;;;;;;;;;;4984484;28;22123;-60
2021/11/18 10:20:43;;;;;;;19.35;2.90;;;;;;;;;;4985825;28;20033;-61
2021/11/18 10:23:10;;;;;;;21.48;2.88;;;;;;;;;;5000926;28;20030;-60
2021/11/18 10:25:38;;;;;;;17.95;2.80;;;;;;;;;;4983844;28;20055;-60
2021/11/18 10:28:19;;;;;;;20.50;2.60;;;;;;;;;;4983151;28;20726;-60
2021/11/18 10:31:03;;;;;;;21.08;2.30;;;;;;;;;;4997729;28;20065;-60
2021/11/18 10:33:37;;;;;;;18.63;2.88;;;;;;;;;;4982702;28;20596;-59
2021/11/18 10:36:11;;;;;;;16.77;2.50;;;;;;;;;;4985199;28;20034;-61
2021/11/18 10:38:57;;;;;;;20.75;2.88;;;;;;;;;;4983064;28;20034;-60
2021/11/18 10:41:26;;;;;;;18.42;3.15;;;;;;;;;;4982820;28;20022;-62
2021/11/18 10:44:01;;;;;;;16.55;2.45;;;;;;;;;;4984658;28;20149;-61
2021/11/18 10:46:27;;;;;;;;;;;;;;;;;;4986795;28;21499;-61
2021/11/18 10:49:09;;;;;;;16.90;2.40;;;;;;;;;;4985837;28;19917;-61
2021/11/18 10:51:35;;;;;;;27.30;2.70;;;;;;;;;;4985462;28;20022;-61
2021/11/18 10:54:03;;;;;;;30.83;3.05;;;;;;;;;;5002699;28;20497;-60
2021/11/18 10:56:50;;;;;;;18.63;3.00;;;;;;;;;;4985118;28;20176;-60
2021/11/18 10:59:34;;;;;;;16.08;3.28;;;;;;;;;;4984323;28;20084;-61
2021/11/18 11:02:00;;;;;;;20.52;2.97;;;;;;;;;;4985438;28;20035;-61
2021/11/18 11:04:36;;;;;;;27.17;3.70;;;;;;;;;;4967688;28;20045;-61
2021/11/18 11:07:05;;;;;;;19.10;3.33;;;;;;;;;;4986082;28;20026;-61
2021/11/18 11:09:44;;;;;;;23.42;2.38;;;;;;;;;;4987105;28;20038;-61
2021/11/18 11:12:21;;;;;;;11.77;2.58;;;;;;;;;;4982636;28;20022;-62
2021/11/18 11:14:53;;;;;;;13.55;2.55;;;;;;;;;;4980374;28;20103;-62
2021/11/18 11:17:40;;;;;;;11.00;2.47;;;;;;;;;;4995927;28;20091;-61
2021/11/18 11:20:24;;;;;;;9.18;2.58;;;;;;;;;;4986202;28;20038;-62
2021/11/18 11:23:07;;;;;;;17.90;2.47;;;;;;;;;;4986638;28;20422;-61
2021/11/18 11:25:51;;;;;;;25.85;2.38;;;;;;;;;;4987875;28;20030;-61
2021/11/18 11:28:39;;;;;;;17.65;3.35;;;;;;;;;;4986641;28;20037;-61
2021/11/18 11:31:25;;;;;;;16.17;2.58;;;;;;;;;;4970186;28;20165;-61
2021/11/18 11:33:56;;;;;;;15.02;2.45;;;;;;;;;;4986710;28;20108;-61
2021/11/18 11:36:28;;;;;;;18.00;2.58;;;;;;;;;;5001033;28;20034;-59
2021/11/18 11:38:59;;;;;;;14.05;2.42;;;;;;;;;;4987092;28;20038;-60
2021/11/18 11:41:43;;;;;;;12.52;2.40;;;;;;;;;;4966578;28;20105;-59
2021/11/18 11:44:15;;;;;;;14.15;2.83;;;;;;;;;;5000931;28;20026;-60
2021/11/18 11:46:54;;;;;;;15.23;1.83;;;;;;;;;;4987449;28;20106;-59
2021/11/18 11:49:28;;;;;;;12.55;2.42;;;;;;;;;;4987064;28;20568;-60
2021/11/18 11:51:53;;;;;;;18.88;2.60;;;;;;;;;;4983493;28;20034;-59
2021/11/18 11:54:28;;;;;;;20.67;2.25;;;;;;;;;;5001145;28;20722;-59
2021/11/18 11:57:00;;;;;;;15.85;3.35;;;;;;;;;;4986976;28;20307;-59
2021/11/18 11:59:28;;;;;;;23.23;2.72;;;;;;;;;;4982793;28;21304;-60
2021/11/18 12:02:00;;;;;;;17.98;2.55;;;;;;;;;;4985375;28;20030;-60
2021/11/18 12:04:31;;;;;;;18.98;2.22;;;;;;;;;;4969028;28;20477;-60
2021/11/18 12:07:00;;;;;;;21.80;3.15;;;;;;;;;;4984354;28;20466;-60
2021/11/18 12:09:28;;;;;;;18.60;2.58;;;;;;;;;;4987305;28;20104;-60
2021/11/18 12:12:03;;;;;;;16.27;2.80;;;;;;;;;;4986841;28;20172;-60
2021/11/18 12:14:40;;;;;;;23.90;3.05;;;;;;;;;;4985807;28;20677;-60
2021/11/18 12:17:18;;;;;;;18.25;2.65;;;;;;;;;;4968498;28;20034;-59
2021/11/18 12:19:52;;;;;;;18.70;2.45;;;;;;;;;;4986297;28;20746;-60
2021/11/18 12:22:38;;;;;;;17.60;2.43;;;;;;;;;;4987532;28;20038;-60
2021/11/18 12:25:13;;;;;;;20.80;3.17;;;;;;;;;;4997306;28;20437;-61
2021/11/18 12:27:43;;;;;;;11.55;1.88;;;;;;;;;;5002197;28;20036;-58
2021/11/18 12:30:14;;;;;;;22.42;3.05;;;;;;;;;;4984661;28;20040;-60
2021/11/18 12:33:14;;;;;;;16.45;2.78;;;;;;;;;;4985558;28;20045;-58
2021/11/18 12:35:40;;;;;;;23.50;2.78;;;;;;;;;;4933446;28;20099;-60
2021/11/18 12:38:31;;;;;;;6.63;2.65;;;;;;;;;;5002960;28;20037;-58
2021/11/18 12:41:15;;;;;;;9.63;2.60;;;;;;;;;;4984319;28;20724;-60
2021/11/18 12:43:59;;;;;;;19.50;2.60;;;;;;;;;;4985383;28;20295;-60
2021/11/18 12:46:27;;;;;;;17.65;2.20;;;;;;;;;;4983127;28;20052;-59
2021/11/18 12:49:00;;;;;;;8.45;2.25;;;;;;;;;;4986650;28;20045;-60
2021/11/18 12:51:38;;;;;;;18.85;2.70;;;;;;;;;;4982161;28;20025;-61
2021/11/18 12:54:09;;;;;;;17.33;2.58;;;;;;;;;;4985144;28;21974;-60
2021/11/18 12:56:52;;;;;;;24.42;2.65;;;;;;;;;;5000331;28;20493;-60
2021/11/18 12:59:39;;;;;;;15.00;2.38;;;;;;;;;;4984215;28;20177;-59
2021/11/18 13:02:26;;;;;;;23.48;2.95;;;;;;;;;;4985157;28;20049;-60
2021/11/18 13:05:13;;;;;;;16.23;2.53;;;;;;;;;;4998321;28;20056;-60
2021/11/18 13:07:58;;;;;;;16.35;2.13;;;;;;;;;;4986557;28;22163;-60
2021/11/18 13:10:52;;;;;;;11.73;2.13;;;;;;;;;;4987264;28;20048;-60
2021/11/18 13:13:42;;;;;;;23.67;2.85;;;;;;;;;;4985092;28;20216;-60
2021/11/18 13:16:30;;;;;;;13.88;3.33;;;;;;;;;;4997093;28;20504;-61
2021/11/18 13:19:14;;;;;;;28.20;3.03;;;;;;;;;;4999053;28;20052;-62
2021/11/18 13:22:01;;;;;;;21.63;2.45;;;;;;;;;;4986440;28;20057;-59
2021/11/18 13:25:06;;;;;;;20.55;3.17;;;;;;;;;;4986571;28;20045;-60
2021/11/18 13:27:53;;;;;;;14.27;2.63;;;;;;;;;;4986085;28;20180;-61
2021/11/18 13:30:53;;;;;;;25.23;3.28;;;;;;;;;;4985775;28;20044;-60
2021/11/18 13:33:43;;;;;;;21.33;3.15;;;;;;;;;;4983763;28;20421;-60
2021/11/18 13:36:31;;;;;;;14.35;3.42;;;;;;;;;;4987163;28;20103;-60
2021/11/18 13:39:23;;;;;;;18.95;2.55;;;;;;;;;;4984702;28;20528;-59
2021/11/18 13:42:19;;;;;;;20.60;3.25;;;;;;;;;;4998842;28;20670;-60
2021/11/18 13:45:15;;;;;;;16.35;4.18;;;;;;;;;;4981736;28;21033;-60
2021/11/18 13:48:00;;;;;;;17.15;2.55;;;;;;;;;;4999144;28;20174;-61
2021/11/18 13:50:51;;;;;;;19.27;3.08;;;;;;;;;;4997429;28;20068;-60
2021/11/18 13:53:37;;;;;;;12.75;2.63;;;;;;;;;;4981500;28;20088;-60
2021/11/18 13:56:53;;;;;;;19.08;3.38;;;;;;;;;;4997665;28;20096;-61
2021/11/18 13:59:48;;;;;;;18.30;3.08;;;;;;;;;;4997706;28;22136;-60
2021/11/18 14:02:38;;;;;;;21.20;3.38;;;;;;;;;;4982121;28;20111;-59
2021/11/18 14:05:23;;;;;;;35.55;4.40;;;;;;;;;;4984815;28;20115;-60
2021/11/18 14:08:15;;;;;;;24.63;3.70;;;;;;;;;;4985262;28;20045;-59
2021/11/18 14:11:07;;;;;;;22.15;2.85;;;;;;;;;;4985634;28;20448;-60
2021/11/18 14:14:00;;;;;;;21.38;2.58;;;;;;;;;;4982027;28;20103;-60
2021/11/18 14:16:44;;;;;;;20.13;3.33;;;;;;;;;;4983040;28;20115;-59
2021/11/18 14:19:30;;;;;;;25.15;3.17;;;;;;;;;;4981466;28;20068;-60
2021/11/18 14:22:23;;;;;;;19.15;3.45;;;;;;;;;;4985211;28;20049;-62
2021/11/18 14:25:28;;;;;;;21.58;2.72;;;;;;;;;;4983924;28;20076;-61
2021/11/18 14:28:33;;;;;;;23.33;2.88;;;;;;;;;;4986269;28;21990;-60
2021/11/18 14:31:32;;;;;;;25.53;3.73;;;;;;;;;;4997803;28;20045;-60
2021/11/18 14:34:23;;;;;;;22.35;3.70;;;;;;;;;;4983720;28;20077;-60
2021/11/18 14:37:31;;;;;;;21.77;3.95;;;;;;;;;;4995782;28;20072;-61
2021/11/18 14:40:28;;;;;;;23.45;4.00;;;;;;;;;;4984927;28;20073;-61
2021/11/18 14:43:23;;;;;;;27.23;3.13;;;;;;;;;;4985216;28;21042;-59
2021/11/18 14:46:15;;;;;;;19.40;3.10;;;;;;;;;;4987881;28;20902;-62
2021/11/18 14:49:09;;;;;;;17.65;3.58;;;;;;;;;;4985910;28;20100;-60
2021/11/18 14:51:54;;;;;;;17.13;2.92;;;;;;;;;;4995144;28;20041;-61
2021/11/18 14:54:38;;;;;;;36.17;3.58;;;;;;;;;;4988115;28;20045;-61
2021/11/18 14:57:29;;;;;;;32.42;3.75;;;;;;;;;;4982742;28;20256;-60
2021/11/18 14:59:55;;;;;;;21.48;3.15;;;;;;;;;;4983916;28;20095;-60
2021/11/18 15:02:21;;;;;;;21.60;3.67;;;;;;;;;;4988457;28;20038;-60
2021/11/18 15:04:49;;;;;;;17.58;2.88;;;;;;;;;;4984429;28;20030;-61
2021/11/18 15:07:20;;;;;;;19.48;2.85;;;;;;;;;;4986825;28;20831;-60
2021/11/18 15:09:49;;;;;;;25.58;3.55;;;;;;;;;;5003252;28;20096;-60
2021/11/18 15:12:17;;;;;;;14.77;3.20;;;;;;;;;;4984252;28;20461;-60